sensor_id;sensor_type;location;lat;lon;timestamp;pressure;altitude;pressure_sealevel;temperature;humidity
46942;BME280;32676;52.630;4.896;2024-03-02T00:00:38;100647.72;;;8.30;74.12
46942;BME280;32676;52.630;4.896;2024-03-02T00:03:06;100630.53;;;8.20;74.40
46942;BME280;32676;52.630;4.896;2024-03-02T00:05:34;100659.75;;;8.37;74.44
46942;BME280;32676;52.630;4.896;2024-03-02T00:08:01;100654.53;;;8.37;74.48
46942;BME280;32676;52.630;4.896;2024-03-02T00:10:36;100543.75;;;7.69;74.63
46942;BME280;32676;52.630;4.896;2024-03-02T00:13:05;100617.69;;;8.11;74.98
46942;BME280;32676;52.630;4.896;2024-03-02T00:15:41;100664.03;;;8.40;74.64
46942;BME280;32676;52.630;4.896;2024-03-02T00:18:13;100613.25;;;8.13;74.42
46942;BME280;32676;52.630;4.896;2024-03-02T00:20:40;100678.75;;;8.45;74.39
46942;BME280;32676;52.630;4.896;2024-03-02T00:23:08;100684.00;;;8.45;74.60
46942;BME280;32676;52.630;4.896;2024-03-02T00:25:40;100666.69;;;8.38;74.85
46942;BME280;32676;52.630;4.896;2024-03-02T00:28:14;100682.31;;;8.44;74.84
46942;BME280;32676;52.630;4.896;2024-03-02T00:30:52;100671.88;;;8.41;75.22
46942;BME280;32676;52.630;4.896;2024-03-02T00:33:23;100642.56;;;8.27;75.74
46942;BME280;32676;52.630;4.896;2024-03-02T00:35:50;100656.22;;;8.38;75.76
46942;BME280;32676;52.630;4.896;2024-03-02T00:38:17;100543.59;;;7.74;75.89
46942;BME280;32676;52.630;4.896;2024-03-02T00:40:44;100498.03;;;7.50;76.08
46942;BME280;32676;52.630;4.896;2024-03-02T00:43:45;100586.94;;;8.19;76.30
46942;BME280;32676;52.630;4.896;2024-03-02T00:46:12;100532.78;;;7.90;76.49
46942;BME280;32676;52.630;4.896;2024-03-02T00:48:48;100571.31;;;8.16;76.87
46942;BME280;32676;52.630;4.896;2024-03-02T00:51:15;100547.19;;;8.04;77.18
46942;BME280;32676;52.630;4.896;2024-03-02T00:53:41;100533.94;;;8.11;77.81
46942;BME280;32676;52.630;4.896;2024-03-02T00:56:09;100507.03;;;8.05;78.06
46942;BME280;32676;52.630;4.896;2024-03-02T00:58:37;100459.63;;;7.85;78.48
46942;BME280;32676;52.630;4.896;2024-03-02T01:01:03;100460.28;;;7.93;78.74
46942;BME280;32676;52.630;4.896;2024-03-02T01:03:31;100418.25;;;7.68;79.29
46942;BME280;32676;52.630;4.896;2024-03-02T01:05:59;100432.66;;;7.83;79.52
46942;BME280;32676;52.630;4.896;2024-03-02T01:08:25;100416.97;;;7.83;79.77
46942;BME280;32676;52.630;4.896;2024-03-02T01:10:52;100380.69;;;7.71;79.98
46942;BME280;32676;52.630;4.896;2024-03-02T01:13:20;100376.25;;;7.73;80.10
46942;BME280;32676;52.630;4.896;2024-03-02T01:15:47;100344.31;;;7.61;80.39
46942;BME280;32676;52.630;4.896;2024-03-02T01:18:14;100327.03;;;7.57;80.41
46942;BME280;32676;52.630;4.896;2024-03-02T01:20:40;100319.22;;;7.56;80.42
46942;BME280;32676;52.630;4.896;2024-03-02T01:23:08;100292.38;;;7.49;80.42
46942;BME280;32676;52.630;4.896;2024-03-02T01:25:35;100269.13;;;7.40;80.39
46942;BME280;32676;52.630;4.896;2024-03-02T01:28:02;100270.03;;;7.39;80.46
46942;BME280;32676;52.630;4.896;2024-03-02T01:30:28;100269.16;;;7.38;80.62
46942;BME280;32676;52.630;4.896;2024-03-02T01:32:55;100251.09;;;7.30;80.66
46942;BME280;32676;52.630;4.896;2024-03-02T01:35:21;100291.50;;;7.50;81.03
46942;BME280;32676;52.630;4.896;2024-03-02T01:37:48;100248.94;;;7.45;80.74
46942;BME280;32676;52.630;4.896;2024-03-02T01:40:16;100242.09;;;7.41;80.98
46942;BME280;32676;52.630;4.896;2024-03-02T01:42:43;100213.72;;;7.27;81.08
46942;BME280;32676;52.630;4.896;2024-03-02T01:45:10;100197.28;;;7.23;81.14
46942;BME280;32676;52.630;4.896;2024-03-02T01:47:36;100189.44;;;7.23;81.24
46942;BME280;32676;52.630;4.896;2024-03-02T01:50:03;100183.41;;;7.21;81.11
46942;BME280;32676;52.630;4.896;2024-03-02T01:52:30;100194.50;;;7.29;81.38
46942;BME280;32676;52.630;4.896;2024-03-02T01:54:57;100166.13;;;7.17;81.46
46942;BME280;32676;52.630;4.896;2024-03-02T01:57:25;100064.94;;;6.63;81.33
46942;BME280;32676;52.630;4.896;2024-03-02T01:59:52;100111.84;;;6.97;81.40
46942;BME280;32676;52.630;4.896;2024-03-02T02:02:18;100107.47;;;6.98;81.36
46942;BME280;32676;52.630;4.896;2024-03-02T02:04:45;100061.25;;;6.70;81.62
46942;BME280;32676;52.630;4.896;2024-03-02T02:07:12;100105.72;;;6.97;81.66
46942;BME280;32676;52.630;4.896;2024-03-02T02:09:40;100076.81;;;6.73;81.82
46942;BME280;32676;52.630;4.896;2024-03-02T02:12:07;100099.63;;;6.98;81.87
46942;BME280;32676;52.630;4.896;2024-03-02T02:14:35;100127.91;;;7.13;81.86
46942;BME280;32676;52.630;4.896;2024-03-02T02:17:01;100088.44;;;6.92;81.71
46942;BME280;32676;52.630;4.896;2024-03-02T02:19:28;100021.66;;;6.56;81.70
46942;BME280;32676;52.630;4.896;2024-03-02T02:21:56;100018.13;;;6.57;81.59
46942;BME280;32676;52.630;4.896;2024-03-02T02:24:22;100102.88;;;7.06;81.61
46942;BME280;32676;52.630;4.896;2024-03-02T02:26:49;100085.53;;;7.03;81.49
46942;BME280;32676;52.630;4.896;2024-03-02T02:29:15;99958.94;;;6.27;81.55
46942;BME280;32676;52.630;4.896;2024-03-02T02:31:42;100075.16;;;7.00;81.43
46942;BME280;32676;52.630;4.896;2024-03-02T02:34:09;99999.91;;;6.55;81.59
46942;BME280;32676;52.630;4.896;2024-03-02T02:36:37;99943.41;;;6.24;81.73
46942;BME280;32676;52.630;4.896;2024-03-02T02:39:07;99924.41;;;6.19;81.61
46942;BME280;32676;52.630;4.896;2024-03-02T02:41:36;99951.94;;;6.29;81.88
46942;BME280;32676;52.630;4.896;2024-03-02T02:44:02;100012.47;;;6.72;81.73
46942;BME280;32676;52.630;4.896;2024-03-02T02:46:29;100009.81;;;6.73;81.83
46942;BME280;32676;52.630;4.896;2024-03-02T02:48:56;99947.31;;;6.39;81.57
46942;BME280;32676;52.630;4.896;2024-03-02T02:51:22;99999.94;;;6.83;81.73
46942;BME280;32676;52.630;4.896;2024-03-02T02:53:50;99985.41;;;6.75;81.41
46942;BME280;32676;52.630;4.896;2024-03-02T02:56:18;99944.22;;;6.54;81.64
46942;BME280;32676;52.630;4.896;2024-03-02T02:58:45;99988.19;;;6.68;81.58
46942;BME280;32676;52.630;4.896;2024-03-02T03:01:11;99953.06;;;6.50;81.70
46942;BME280;32676;52.630;4.896;2024-03-02T03:03:38;99963.19;;;6.61;81.70
46942;BME280;32676;52.630;4.896;2024-03-02T03:06:05;99925.47;;;6.42;81.67
46942;BME280;32676;52.630;4.896;2024-03-02T03:08:31;99945.16;;;6.53;81.72
46942;BME280;32676;52.630;4.896;2024-03-02T03:10:58;99977.59;;;6.73;81.91
46942;BME280;32676;52.630;4.896;2024-03-02T03:13:26;99869.88;;;6.11;81.75
46942;BME280;32676;52.630;4.896;2024-03-02T03:15:52;99888.06;;;6.13;81.88
46942;BME280;32676;52.630;4.896;2024-03-02T03:18:19;100024.25;;;6.85;82.05
46942;BME280;32676;52.630;4.896;2024-03-02T03:20:46;99854.28;;;5.79;82.29
46942;BME280;32676;52.630;4.896;2024-03-02T03:23:12;100013.78;;;6.85;82.40
46942;BME280;32676;52.630;4.896;2024-03-02T03:25:40;99956.50;;;6.51;82.17
46942;BME280;32676;52.630;4.896;2024-03-02T03:28:07;99898.56;;;6.11;81.83
46942;BME280;32676;52.630;4.896;2024-03-02T03:30:36;100016.38;;;6.87;82.12
46942;BME280;32676;52.630;4.896;2024-03-02T03:33:03;99901.06;;;6.14;82.01
46942;BME280;32676;52.630;4.896;2024-03-02T03:35:31;99919.88;;;6.26;81.96
46942;BME280;32676;52.630;4.896;2024-03-02T03:37:59;99947.59;;;6.30;82.06
46942;BME280;32676;52.630;4.896;2024-03-02T03:40:26;99980.88;;;6.51;82.02
46942;BME280;32676;52.630;4.896;2024-03-02T03:42:52;99974.75;;;6.52;81.97
46942;BME280;32676;52.630;4.896;2024-03-02T03:45:19;100012.38;;;6.75;82.07
46942;BME280;32676;52.630;4.896;2024-03-02T03:47:47;100031.16;;;6.88;81.77
46942;BME280;32676;52.630;4.896;2024-03-02T03:50:14;100020.75;;;6.86;81.74
46942;BME280;32676;52.630;4.896;2024-03-02T03:52:41;100021.53;;;6.88;81.77
46942;BME280;32676;52.630;4.896;2024-03-02T03:55:09;100013.78;;;6.85;81.51
46942;BME280;32676;52.630;4.896;2024-03-02T03:57:35;100012.94;;;6.85;81.48
46942;BME280;32676;52.630;4.896;2024-03-02T04:00:03;99925.78;;;6.31;81.18
46942;BME280;32676;52.630;4.896;2024-03-02T04:02:29;100013.91;;;6.82;81.05
46942;BME280;32676;52.630;4.896;2024-03-02T04:04:57;99982.03;;;6.71;80.94
46942;BME280;32676;52.630;4.896;2024-03-02T04:07:24;99940.06;;;6.49;80.76
46942;BME280;32676;52.630;4.896;2024-03-02T04:09:50;99985.34;;;6.76;80.95
46942;BME280;32676;52.630;4.896;2024-03-02T04:12:17;99874.13;;;6.14;80.92
46942;BME280;32676;52.630;4.896;2024-03-02T04:14:44;99966.28;;;6.74;81.04
46942;BME280;32676;52.630;4.896;2024-03-02T04:17:10;99844.16;;;5.99;81.19
46942;BME280;32676;52.630;4.896;2024-03-02T04:19:37;99941.28;;;6.65;81.27
46942;BME280;32676;52.630;4.896;2024-03-02T04:22:05;99928.28;;;6.64;81.42
46942;BME280;32676;52.630;4.896;2024-03-02T04:24:31;99892.34;;;6.44;81.43
46942;BME280;32676;52.630;4.896;2024-03-02T04:26:58;99916.28;;;6.58;81.39
46942;BME280;32676;52.630;4.896;2024-03-02T04:29:24;99743.44;;;5.65;81.37
46942;BME280;32676;52.630;4.896;2024-03-02T04:31:51;99839.41;;;6.40;81.59
46942;BME280;32676;52.630;4.896;2024-03-02T04:34:18;99778.19;;;5.95;81.63
46942;BME280;32676;52.630;4.896;2024-03-02T04:36:44;99764.19;;;5.98;81.59
46942;BME280;32676;52.630;4.896;2024-03-02T04:39:12;99841.03;;;6.44;81.77
46942;BME280;32676;52.630;4.896;2024-03-02T04:41:39;99748.09;;;5.84;81.99
46942;BME280;32676;52.630;4.896;2024-03-02T04:44:05;99856.59;;;6.47;82.17
46942;BME280;32676;52.630;4.896;2024-03-02T04:46:33;99865.25;;;6.49;82.10
46942;BME280;32676;52.630;4.896;2024-03-02T04:48:59;99839.53;;;6.37;82.34
46942;BME280;32676;52.630;4.896;2024-03-02T04:51:26;99860.91;;;6.48;82.11
46942;BME280;32676;52.630;4.896;2024-03-02T04:53:53;99854.81;;;6.49;82.04
46942;BME280;32676;52.630;4.896;2024-03-02T04:56:21;99857.50;;;6.46;82.03
46942;BME280;32676;52.630;4.896;2024-03-02T04:59:05;99848.81;;;6.46;81.88
46942;BME280;32676;52.630;4.896;2024-03-02T05:01:32;99837.63;;;6.42;81.90
46942;BME280;32676;52.630;4.896;2024-03-02T05:03:58;99817.13;;;6.30;81.86
46942;BME280;32676;52.630;4.896;2024-03-02T05:06:25;99813.44;;;6.37;81.74
46942;BME280;32676;52.630;4.896;2024-03-02T05:08:51;99796.13;;;6.33;81.84
46942;BME280;32676;52.630;4.896;2024-03-02T05:11:18;99780.78;;;6.24;81.83
46942;BME280;32676;52.630;4.896;2024-03-02T05:14:03;99743.78;;;6.11;81.74
46942;BME280;32676;52.630;4.896;2024-03-02T05:16:32;99734.25;;;6.11;81.75
46942;BME280;32676;52.630;4.896;2024-03-02T05:18:59;99696.41;;;5.98;81.71
46942;BME280;32676;52.630;4.896;2024-03-02T05:21:25;99725.41;;;6.15;81.71
46942;BME280;32676;52.630;4.896;2024-03-02T05:23:52;99728.91;;;6.14;81.67
46942;BME280;32676;52.630;4.896;2024-03-02T05:26:18;99704.84;;;6.06;81.76
46942;BME280;32676;52.630;4.896;2024-03-02T05:28:45;99717.84;;;6.08;81.87
46942;BME280;32676;52.630;4.896;2024-03-02T05:31:15;99617.81;;;5.54;81.67
46942;BME280;32676;52.630;4.896;2024-03-02T05:33:41;99693.50;;;6.07;81.67
46942;BME280;32676;52.630;4.896;2024-03-02T05:36:08;99690.09;;;6.05;81.92
46942;BME280;32676;52.630;4.896;2024-03-02T05:38:35;99590.34;;;5.44;81.86
46942;BME280;32676;52.630;4.896;2024-03-02T05:41:02;99668.78;;;5.91;81.95
46942;BME280;32676;52.630;4.896;2024-03-02T05:43:29;99612.22;;;5.66;81.79
46942;BME280;32676;52.630;4.896;2024-03-02T05:45:55;99643.75;;;5.85;81.67
46942;BME280;32676;52.630;4.896;2024-03-02T05:48:23;99659.91;;;5.98;81.94
46942;BME280;32676;52.630;4.896;2024-03-02T05:50:51;99617.94;;;5.77;81.90
46942;BME280;32676;52.630;4.896;2024-03-02T05:53:17;99623.66;;;5.89;81.91
46942;BME280;32676;52.630;4.896;2024-03-02T05:55:44;99587.78;;;5.70;82.02
46942;BME280;32676;52.630;4.896;2024-03-02T05:58:11;99499.47;;;5.08;82.05
46942;BME280;32676;52.630;4.896;2024-03-02T06:00:51;99536.47;;;5.46;82.06
46942;BME280;32676;52.630;4.896;2024-03-02T06:03:17;99596.88;;;5.84;82.18
46942;BME280;32676;52.630;4.896;2024-03-02T06:05:45;99578.22;;;5.69;82.11
46942;BME280;32676;52.630;4.896;2024-03-02T06:08:14;99590.88;;;5.82;82.31
46942;BME280;32676;52.630;4.896;2024-03-02T06:10:41;99593.44;;;5.83;82.38
46942;BME280;32676;52.630;4.896;2024-03-02T06:13:07;99582.47;;;5.73;82.41
46942;BME280;32676;52.630;4.896;2024-03-02T06:15:34;99571.16;;;5.73;82.46
46942;BME280;32676;52.630;4.896;2024-03-02T06:18:01;99569.28;;;5.78;82.45
46942;BME280;32676;52.630;4.896;2024-03-02T06:20:28;99530.84;;;5.58;82.55
46942;BME280;32676;52.630;4.896;2024-03-02T06:22:57;99554.69;;;5.72;82.52
46942;BME280;32676;52.630;4.896;2024-03-02T06:25:24;99545.22;;;5.70;82.52
46942;BME280;32676;52.630;4.896;2024-03-02T06:27:50;99553.00;;;5.71;82.61
46942;BME280;32676;52.630;4.896;2024-03-02T06:30:17;99471.13;;;5.25;82.56
46942;BME280;32676;52.630;4.896;2024-03-02T06:32:43;99562.50;;;5.72;82.63
46942;BME280;32676;52.630;4.896;2024-03-02T06:35:10;99558.22;;;5.71;82.63
46942;BME280;32676;52.630;4.896;2024-03-02T06:37:38;99531.72;;;5.58;82.53
46942;BME280;32676;52.630;4.896;2024-03-02T06:40:07;99530.53;;;5.67;82.39
46942;BME280;32676;52.630;4.896;2024-03-02T06:42:34;99418.22;;;4.96;82.64
46942;BME280;32676;52.630;4.896;2024-03-02T06:45:01;99523.72;;;5.63;82.85
46942;BME280;32676;52.630;4.896;2024-03-02T06:47:27;99522.97;;;5.60;82.70
46942;BME280;32676;52.630;4.896;2024-03-02T06:49:54;99551.28;;;5.70;82.68
46942;BME280;32676;52.630;4.896;2024-03-02T06:52:22;99466.41;;;5.10;82.56
46942;BME280;32676;52.630;4.896;2024-03-02T06:54:49;99599.50;;;5.84;82.72
46942;BME280;32676;52.630;4.896;2024-03-02T06:57:17;99639.22;;;5.92;82.49
46942;BME280;32676;52.630;4.896;2024-03-02T06:59:45;99665.97;;;5.99;82.50
46942;BME280;32676;52.630;4.896;2024-03-02T07:02:11;99697.91;;;6.05;82.24
46942;BME280;32676;52.630;4.896;2024-03-02T07:04:38;99558.03;;;5.23;81.96
46942;BME280;32676;52.630;4.896;2024-03-02T07:07:05;99706.44;;;6.10;81.88
46942;BME280;32676;52.630;4.896;2024-03-02T07:09:31;99709.97;;;6.09;81.66
46942;BME280;32676;52.630;4.896;2024-03-02T07:11:58;99730.72;;;6.12;81.33
46942;BME280;32676;52.630;4.896;2024-03-02T07:14:26;99737.81;;;6.07;81.08
46942;BME280;32676;52.630;4.896;2024-03-02T07:17:12;99779.09;;;6.23;80.83
46942;BME280;32676;52.630;4.896;2024-03-02T07:19:39;99800.50;;;6.32;80.50
46942;BME280;32676;52.630;4.896;2024-03-02T07:22:06;99816.94;;;6.36;80.22
46942;BME280;32676;52.630;4.896;2024-03-02T07:24:39;99801.78;;;6.21;79.64
46942;BME280;32676;52.630;4.896;2024-03-02T07:27:06;99872.19;;;6.49;79.48
46942;BME280;32676;52.630;4.896;2024-03-02T07:29:34;99869.75;;;6.44;78.96
46942;BME280;32676;52.630;4.896;2024-03-02T07:32:01;99895.50;;;6.55;78.83
46942;BME280;32676;52.630;4.896;2024-03-02T07:34:28;99852.13;;;6.23;78.58
46942;BME280;32676;52.630;4.896;2024-03-02T07:36:55;99884.84;;;6.33;78.34
46942;BME280;32676;52.630;4.896;2024-03-02T07:39:22;99949.25;;;6.62;78.09
46942;BME280;32676;52.630;4.896;2024-03-02T07:41:49;99949.41;;;6.56;78.08
46942;BME280;32676;52.630;4.896;2024-03-02T07:44:15;99958.81;;;6.62;77.79
46942;BME280;32676;52.630;4.896;2024-03-02T07:46:46;99995.94;;;6.71;77.93
46942;BME280;32676;52.630;4.896;2024-03-02T07:49:15;99930.19;;;6.29;77.50
46942;BME280;32676;52.630;4.896;2024-03-02T07:51:41;100064.91;;;6.94;77.47
46942;BME280;32676;52.630;4.896;2024-03-02T07:54:08;100083.06;;;6.99;77.40
46942;BME280;32676;52.630;4.896;2024-03-02T07:56:35;100092.50;;;7.03;77.30
46942;BME280;32676;52.630;4.896;2024-03-02T07:59:02;100121.06;;;7.09;77.23
46942;BME280;32676;52.630;4.896;2024-03-02T08:01:29;100123.69;;;7.07;76.96
46942;BME280;32676;52.630;4.896;2024-03-02T08:03:58;100108.75;;;6.83;76.98
46942;BME280;32676;52.630;4.896;2024-03-02T08:06:25;100138.19;;;6.89;76.86
46942;BME280;32676;52.630;4.896;2024-03-02T08:08:53;100177.91;;;7.01;76.71
46942;BME280;32676;52.630;4.896;2024-03-02T08:11:20;100199.53;;;7.06;76.46
46942;BME280;32676;52.630;4.896;2024-03-02T08:13:47;100250.56;;;7.18;76.12
46942;BME280;32676;52.630;4.896;2024-03-02T08:16:14;100286.13;;;7.23;76.02
46942;BME280;32676;52.630;4.896;2024-03-02T08:18:41;100336.19;;;7.41;75.93
46942;BME280;32676;52.630;4.896;2024-03-02T08:21:09;100319.34;;;7.18;75.46
46942;BME280;32676;52.630;4.896;2024-03-02T08:23:36;100374.66;;;7.36;75.28
46942;BME280;32676;52.630;4.896;2024-03-02T08:26:03;100484.16;;;7.81;74.66
46942;BME280;32676;52.630;4.896;2024-03-02T08:28:30;100535.25;;;7.94;74.57
46942;BME280;32676;52.630;4.896;2024-03-02T08:30:56;100604.28;;;8.23;73.99
46942;BME280;32676;52.630;4.896;2024-03-02T08:33:23;100491.06;;;7.49;73.68
46942;BME280;32676;52.630;4.896;2024-03-02T08:35:50;100480.84;;;7.40;72.97
46942;BME280;32676;52.630;4.896;2024-03-02T08:38:18;100630.28;;;8.29;72.66
46942;BME280;32676;52.630;4.896;2024-03-02T08:40:45;100547.91;;;7.77;72.18
46942;BME280;32676;52.630;4.896;2024-03-02T08:43:11;100520.25;;;7.68;72.06
46942;BME280;32676;52.630;4.896;2024-03-02T08:45:38;100629.25;;;8.35;71.81
46942;BME280;32676;52.630;4.896;2024-03-02T08:48:06;100556.09;;;7.97;71.62
46942;BME280;32676;52.630;4.896;2024-03-02T08:50:33;100499.50;;;7.60;71.31
46942;BME280;32676;52.630;4.896;2024-03-02T08:53:00;100472.13;;;7.41;71.34
46942;BME280;32676;52.630;4.896;2024-03-02T08:55:28;100608.53;;;8.27;71.65
46942;BME280;32676;52.630;4.896;2024-03-02T08:57:55;100510.69;;;7.65;71.28
46942;BME280;32676;52.630;4.896;2024-03-02T09:00:21;100616.31;;;8.30;71.23
46942;BME280;32676;52.630;4.896;2024-03-02T09:02:48;100607.72;;;8.25;71.42
46942;BME280;32676;52.630;4.896;2024-03-02T09:05:15;100534.91;;;7.74;71.12
46942;BME280;32676;52.630;4.896;2024-03-02T09:07:42;100638.00;;;8.35;70.88
46942;BME280;32676;52.630;4.896;2024-03-02T09:10:09;100562.72;;;7.76;70.60
46942;BME280;32676;52.630;4.896;2024-03-02T09:12:37;100611.06;;;7.97;70.85
46942;BME280;32676;52.630;4.896;2024-03-02T09:15:05;100656.66;;;8.21;71.18
46942;BME280;32676;52.630;4.896;2024-03-02T09:17:32;100723.91;;;8.57;71.10
46942;BME280;32676;52.630;4.896;2024-03-02T09:19:59;100733.41;;;8.59;70.84
46942;BME280;32676;52.630;4.896;2024-03-02T09:22:25;100658.03;;;8.02;70.55
46942;BME280;32676;52.630;4.896;2024-03-02T09:24:52;100679.59;;;8.12;70.26
46942;BME280;32676;52.630;4.896;2024-03-02T09:27:19;100740.81;;;8.42;69.91
46942;BME280;32676;52.630;4.896;2024-03-02T09:29:47;100785.09;;;8.53;69.74
46942;BME280;32676;52.630;4.896;2024-03-02T09:32:13;100813.25;;;8.79;69.73
46942;BME280;32676;52.630;4.896;2024-03-02T09:34:41;100805.50;;;8.74;69.74
46942;BME280;32676;52.630;4.896;2024-03-02T09:37:08;100797.63;;;8.76;69.39
46942;BME280;32676;52.630;4.896;2024-03-02T09:39:35;100802.06;;;8.72;69.53
46942;BME280;32676;52.630;4.896;2024-03-02T09:42:03;100790.03;;;8.65;69.29
46942;BME280;32676;52.630;4.896;2024-03-02T09:44:30;100722.91;;;8.25;69.20
46942;BME280;32676;52.630;4.896;2024-03-02T09:46:59;100842.06;;;8.80;69.62
46942;BME280;32676;52.630;4.896;2024-03-02T09:49:25;100859.41;;;8.84;69.92
46942;BME280;32676;52.630;4.896;2024-03-02T09:51:52;100866.69;;;8.73;69.76
46942;BME280;32676;52.630;4.896;2024-03-02T09:54:19;100814.22;;;8.39;69.15
46942;BME280;32676;52.630;4.896;2024-03-02T09:56:46;100940.84;;;9.11;68.88
46942;BME280;32676;52.630;4.896;2024-03-02T09:59:13;100898.94;;;8.75;68.74
46942;BME280;32676;52.630;4.896;2024-03-02T10:01:55;100932.63;;;8.91;68.38
46942;BME280;32676;52.630;4.896;2024-03-02T10:04:24;100997.38;;;9.25;68.38
46942;BME280;32676;52.630;4.896;2024-03-02T10:06:51;100902.16;;;8.48;68.25
46942;BME280;32676;52.630;4.896;2024-03-02T10:09:27;101062.53;;;9.40;68.11
46942;BME280;32676;52.630;4.896;2024-03-02T10:12:03;101016.28;;;9.00;68.03
46942;BME280;32676;52.630;4.896;2024-03-02T10:14:30;101085.38;;;9.35;67.57
46942;BME280;32676;52.630;4.896;2024-03-02T10:17:02;101144.28;;;9.60;67.35
46942;BME280;32676;52.630;4.896;2024-03-02T10:19:30;101142.69;;;9.53;67.29
46942;BME280;32676;52.630;4.896;2024-03-02T10:21:59;101109.84;;;9.37;66.92
46942;BME280;32676;52.630;4.896;2024-03-02T10:24:25;101161.66;;;9.65;66.34
46942;BME280;32676;52.630;4.896;2024-03-02T10:26:52;101173.81;;;9.69;65.83
46942;BME280;32676;52.630;4.896;2024-03-02T10:29:19;101167.03;;;9.58;66.15
46942;BME280;32676;52.630;4.896;2024-03-02T10:31:46;101192.19;;;9.67;65.79
46942;BME280;32676;52.630;4.896;2024-03-02T10:34:13;101214.78;;;9.74;65.83
46942;BME280;32676;52.630;4.896;2024-03-02T10:36:43;101238.22;;;9.82;65.97
46942;BME280;32676;52.630;4.896;2024-03-02T10:39:12;101258.19;;;9.89;65.56
46942;BME280;32676;52.630;4.896;2024-03-02T10:41:39;101288.75;;;9.93;65.11
46942;BME280;32676;52.630;4.896;2024-03-02T10:44:07;101269.81;;;9.79;65.07
46942;BME280;32676;52.630;4.896;2024-03-02T10:46:35;101299.94;;;10.00;65.32
46942;BME280;32676;52.630;4.896;2024-03-02T10:49:02;101211.16;;;9.41;65.04
46942;BME280;32676;52.630;4.896;2024-03-02T10:51:30;101309.53;;;10.03;64.77
46942;BME280;32676;52.630;4.896;2024-03-02T10:54:00;101295.97;;;9.82;64.59
46942;BME280;32676;52.630;4.896;2024-03-02T10:56:29;101366.97;;;10.16;64.45
46942;BME280;32676;52.630;4.896;2024-03-02T10:59:02;101322.31;;;9.79;64.21
46942;BME280;32676;52.630;4.896;2024-03-02T11:01:31;101331.91;;;9.78;63.91
46942;BME280;32676;52.630;4.896;2024-03-02T11:03:59;101306.94;;;9.60;63.58
46942;BME280;32676;52.630;4.896;2024-03-02T11:06:28;101334.66;;;9.74;62.95
46942;BME280;32676;52.630;4.896;2024-03-02T11:09:00;101453.25;;;10.38;62.93
46942;BME280;32676;52.630;4.896;2024-03-02T11:11:32;101402.38;;;9.98;62.33
46942;BME280;32676;52.630;4.896;2024-03-02T11:14:04;101496.78;;;10.50;62.52
46942;BME280;32676;52.630;4.896;2024-03-02T11:16:35;101516.00;;;10.52;62.46
46942;BME280;32676;52.630;4.896;2024-03-02T11:19:04;101473.56;;;10.28;62.18
46942;BME280;32676;52.630;4.896;2024-03-02T11:21:32;101425.31;;;9.90;61.86
46942;BME280;32676;52.630;4.896;2024-03-02T11:24:00;101456.50;;;10.06;61.81
46942;BME280;32676;52.630;4.896;2024-03-02T11:26:47;101515.53;;;10.31;62.10
46942;BME280;32676;52.630;4.896;2024-03-02T11:29:42;101553.03;;;10.41;61.68
46942;BME280;32676;52.630;4.896;2024-03-02T11:32:14;101448.19;;;9.84;60.74
46942;BME280;32676;52.630;4.896;2024-03-02T11:34:42;101520.94;;;10.22;60.28
46942;BME280;32676;52.630;4.896;2024-03-02T11:37:12;101527.94;;;10.23;59.89
46942;BME280;32676;52.630;4.896;2024-03-02T11:39:40;101623.25;;;10.76;59.80
46942;BME280;32676;52.630;4.896;2024-03-02T11:42:07;101556.63;;;10.35;59.80
46942;BME280;32676;52.630;4.896;2024-03-02T11:44:35;101650.16;;;10.89;59.72
46942;BME280;32676;52.630;4.896;2024-03-02T11:47:05;101638.13;;;10.79;60.02
46942;BME280;32676;52.630;4.896;2024-03-02T11:49:36;101671.94;;;10.96;59.56
46942;BME280;32676;52.630;4.896;2024-03-02T11:52:05;101644.38;;;10.73;59.87
46942;BME280;32676;52.630;4.896;2024-03-02T11:54:32;101696.47;;;10.97;60.31
46942;BME280;32676;52.630;4.896;2024-03-02T11:57:01;101732.19;;;11.08;59.72
46942;BME280;32676;52.630;4.896;2024-03-02T11:59:37;101685.25;;;10.88;59.30
46942;BME280;32676;52.630;4.896;2024-03-02T12:02:03;101674.03;;;10.79;58.96
46942;BME280;32676;52.630;4.896;2024-03-02T12:04:30;101623.81;;;10.49;58.78
46942;BME280;32676;52.630;4.896;2024-03-02T12:06:58;101752.22;;;11.16;58.95
46942;BME280;32676;52.630;4.896;2024-03-02T12:09:26;101765.34;;;11.17;58.86
46942;BME280;32676;52.630;4.896;2024-03-02T12:12:09;101682.19;;;10.66;58.81
46942;BME280;32676;52.630;4.896;2024-03-02T12:14:38;101757.59;;;11.09;58.57
46942;BME280;32676;52.630;4.896;2024-03-02T12:17:05;101793.31;;;11.21;58.24
46942;BME280;32676;52.630;4.896;2024-03-02T12:19:32;101815.03;;;11.31;57.82
46942;BME280;32676;52.630;4.896;2024-03-02T12:22:00;101825.53;;;11.34;57.64
46942;BME280;32676;52.630;4.896;2024-03-02T12:24:28;101803.00;;;11.21;57.74
46942;BME280;32676;52.630;4.896;2024-03-02T12:26:55;101825.53;;;11.32;57.23
46942;BME280;32676;52.630;4.896;2024-03-02T12:29:23;101835.91;;;11.40;57.12
46942;BME280;32676;52.630;4.896;2024-03-02T12:31:51;101843.78;;;11.42;57.24
46942;BME280;32676;52.630;4.896;2024-03-02T12:34:19;101857.75;;;11.45;57.25
46942;BME280;32676;52.630;4.896;2024-03-02T12:36:46;101868.22;;;11.48;57.23
46942;BME280;32676;52.630;4.896;2024-03-02T12:39:15;101885.69;;;11.52;57.75
46942;BME280;32676;52.630;4.896;2024-03-02T12:41:41;101789.50;;;10.91;57.77
46942;BME280;32676;52.630;4.896;2024-03-02T12:44:08;101889.44;;;11.41;58.46
46942;BME280;32676;52.630;4.896;2024-03-02T12:46:37;101775.72;;;10.76;58.39
46942;BME280;32676;52.630;4.896;2024-03-02T12:49:08;101897.13;;;11.51;57.32
46942;BME280;32676;52.630;4.896;2024-03-02T12:51:36;101919.88;;;11.56;56.49
46942;BME280;32676;52.630;4.896;2024-03-02T12:54:03;101916.31;;;11.57;56.12
46942;BME280;32676;52.630;4.896;2024-03-02T12:56:31;101840.03;;;11.08;56.44
46942;BME280;32676;52.630;4.896;2024-03-02T12:58:58;101920.72;;;11.56;56.19
46942;BME280;32676;52.630;4.896;2024-03-02T13:01:25;101940.69;;;11.68;55.86
46942;BME280;32676;52.630;4.896;2024-03-02T13:03:53;101909.56;;;11.43;56.06
46942;BME280;32676;52.630;4.896;2024-03-02T13:06:21;101959.88;;;11.73;56.20